sensor_id;sensor_type;location;lat;lon;timestamp;P1;durP1;ratioP1;P2;durP2;ratioP2
73266;SDS011;61495;53.400;7.608;2022-07-09T00:01:42;5.15;;;2.42;;
73266;SDS011;61495;53.400;7.608;2022-07-09T00:04:07;5.55;;;2.85;;
73266;SDS011;61495;53.400;7.608;2022-07-09T00:06:33;5.70;;;2.33;;
73266;SDS011;61495;53.400;7.608;2022-07-09T00:08:58;5.10;;;2.40;;
73266;SDS011;61495;53.400;7.608;2022-07-09T00:11:23;4.63;;;2.30;;
73266;SDS011;61495;53.400;7.608;2022-07-09T00:13:49;6.25;;;2.35;;
73266;SDS011;61495;53.400;7.608;2022-07-09T00:16:14;5.25;;;2.30;;
73266;SDS011;61495;53.400;7.608;2022-07-09T00:18:40;5.22;;;2.38;;
73266;SDS011;61495;53.400;7.608;2022-07-09T00:21:05;6.75;;;2.80;;
73266;SDS011;61495;53.400;7.608;2022-07-09T00:23:31;4.20;;;2.40;;
73266;SDS011;61495;53.400;7.608;2022-07-09T00:25:56;4.35;;;2.00;;
73266;SDS011;61495;53.400;7.608;2022-07-09T00:28:22;3.83;;;1.88;;
73266;SDS011;61495;53.400;7.608;2022-07-09T00:30:47;4.15;;;2.65;;
73266;SDS011;61495;53.400;7.608;2022-07-09T00:33:12;5.47;;;2.33;;
73266;SDS011;61495;53.400;7.608;2022-07-09T00:35:38;6.43;;;2.42;;
73266;SDS011;61495;53.400;7.608;2022-07-09T00:38:03;7.70;;;2.90;;
73266;SDS011;61495;53.400;7.608;2022-07-09T00:40:29;8.38;;;2.95;;
73266;SDS011;61495;53.400;7.608;2022-07-09T00:42:54;5.80;;;2.90;;
73266;SDS011;61495;53.400;7.608;2022-07-09T00:45:19;6.25;;;2.97;;
73266;SDS011;61495;53.400;7.608;2022-07-09T00:47:45;7.20;;;3.05;;
73266;SDS011;61495;53.400;7.608;2022-07-09T00:50:13;5.60;;;3.00;;
73266;SDS011;61495;53.400;7.608;2022-07-09T00:52:39;5.40;;;2.75;;
73266;SDS011;61495;53.400;7.608;2022-07-09T00:55:06;7.13;;;2.95;;
73266;SDS011;61495;53.400;7.608;2022-07-09T00:57:33;5.55;;;2.53;;
73266;SDS011;61495;53.400;7.608;2022-07-09T00:59:59;6.95;;;2.75;;
73266;SDS011;61495;53.400;7.608;2022-07-09T01:02:25;6.75;;;2.95;;
73266;SDS011;61495;53.400;7.608;2022-07-09T01:04:50;6.93;;;3.53;;
73266;SDS011;61495;53.400;7.608;2022-07-09T01:07:16;4.93;;;2.85;;
73266;SDS011;61495;53.400;7.608;2022-07-09T01:09:41;7.95;;;2.95;;
73266;SDS011;61495;53.400;7.608;2022-07-09T01:12:07;6.43;;;3.05;;
73266;SDS011;61495;53.400;7.608;2022-07-09T01:14:33;5.50;;;2.95;;
73266;SDS011;61495;53.400;7.608;2022-07-09T01:17:02;6.65;;;2.83;;
73266;SDS011;61495;53.400;7.608;2022-07-09T01:19:29;7.43;;;2.45;;
73266;SDS011;61495;53.400;7.608;2022-07-09T01:21:56;5.78;;;2.42;;
73266;SDS011;61495;53.400;7.608;2022-07-09T01:24:22;7.07;;;3.10;;
73266;SDS011;61495;53.400;7.608;2022-07-09T01:26:48;6.40;;;2.88;;
73266;SDS011;61495;53.400;7.608;2022-07-09T01:29:14;6.72;;;2.47;;
73266;SDS011;61495;53.400;7.608;2022-07-09T01:31:40;6.82;;;2.33;;
73266;SDS011;61495;53.400;7.608;2022-07-09T01:34:05;6.97;;;3.00;;
73266;SDS011;61495;53.400;7.608;2022-07-09T01:36:30;5.07;;;2.83;;
73266;SDS011;61495;53.400;7.608;2022-07-09T01:38:56;7.15;;;2.63;;
73266;SDS011;61495;53.400;7.608;2022-07-09T01:41:21;8.18;;;2.95;;
73266;SDS011;61495;53.400;7.608;2022-07-09T01:43:47;6.85;;;2.47;;
73266;SDS011;61495;53.400;7.608;2022-07-09T01:46:12;7.15;;;2.58;;
73266;SDS011;61495;53.400;7.608;2022-07-09T01:48:37;7.00;;;2.65;;
73266;SDS011;61495;53.400;7.608;2022-07-09T01:51:07;6.93;;;3.17;;
73266;SDS011;61495;53.400;7.608;2022-07-09T01:53:37;7.15;;;2.88;;
73266;SDS011;61495;53.400;7.608;2022-07-09T01:56:06;7.80;;;2.70;;
73266;SDS011;61495;53.400;7.608;2022-07-09T01:58:32;6.95;;;3.20;;
73266;SDS011;61495;53.400;7.608;2022-07-09T02:00:58;8.40;;;3.55;;
73266;SDS011;61495;53.400;7.608;2022-07-09T02:03:24;8.30;;;3.60;;
73266;SDS011;61495;53.400;7.608;2022-07-09T02:05:49;7.75;;;3.65;;
73266;SDS011;61495;53.400;7.608;2022-07-09T02:08:15;8.32;;;3.63;;
73266;SDS011;61495;53.400;7.608;2022-07-09T02:10:40;6.70;;;3.25;;
73266;SDS011;61495;53.400;7.608;2022-07-09T02:13:06;7.70;;;3.60;;
73266;SDS011;61495;53.400;7.608;2022-07-09T02:15:31;7.10;;;3.30;;
73266;SDS011;61495;53.400;7.608;2022-07-09T02:17:57;9.13;;;3.22;;
73266;SDS011;61495;53.400;7.608;2022-07-09T02:20:23;6.72;;;3.17;;
73266;SDS011;61495;53.400;7.608;2022-07-09T02:22:49;10.23;;;3.55;;
73266;SDS011;61495;53.400;7.608;2022-07-09T02:25:15;7.35;;;3.72;;
73266;SDS011;61495;53.400;7.608;2022-07-09T02:27:41;9.45;;;3.88;;
73266;SDS011;61495;53.400;7.608;2022-07-09T02:30:06;7.60;;;3.33;;
73266;SDS011;61495;53.400;7.608;2022-07-09T02:32:32;8.45;;;3.72;;
73266;SDS011;61495;53.400;7.608;2022-07-09T02:34:58;9.13;;;3.67;;
73266;SDS011;61495;53.400;7.608;2022-07-09T02:37:23;6.25;;;3.30;;
73266;SDS011;61495;53.400;7.608;2022-07-09T02:39:48;7.68;;;3.30;;
73266;SDS011;61495;53.400;7.608;2022-07-09T02:42:14;7.57;;;3.40;;
73266;SDS011;61495;53.400;7.608;2022-07-09T02:44:39;9.15;;;4.25;;
73266;SDS011;61495;53.400;7.608;2022-07-09T02:47:08;10.88;;;4.13;;
73266;SDS011;61495;53.400;7.608;2022-07-09T02:49:33;9.27;;;4.47;;
73266;SDS011;61495;53.400;7.608;2022-07-09T02:51:59;8.98;;;3.42;;
73266;SDS011;61495;53.400;7.608;2022-07-09T02:54:26;6.60;;;4.22;;
73266;SDS011;61495;53.400;7.608;2022-07-09T02:56:52;10.07;;;3.50;;
73266;SDS011;61495;53.400;7.608;2022-07-09T02:59:17;8.30;;;4.07;;
73266;SDS011;61495;53.400;7.608;2022-07-09T03:01:43;8.07;;;3.15;;
73266;SDS011;61495;53.400;7.608;2022-07-09T03:04:09;8.35;;;2.90;;
73266;SDS011;61495;53.400;7.608;2022-07-09T03:06:34;8.45;;;3.35;;
73266;SDS011;61495;53.400;7.608;2022-07-09T03:09:00;5.07;;;2.95;;
73266;SDS011;61495;53.400;7.608;2022-07-09T03:11:25;7.22;;;3.13;;
73266;SDS011;61495;53.400;7.608;2022-07-09T03:13:50;5.90;;;2.22;;
73266;SDS011;61495;53.400;7.608;2022-07-09T03:16:16;6.93;;;2.53;;
73266;SDS011;61495;53.400;7.608;2022-07-09T03:18:41;8.02;;;2.42;;
73266;SDS011;61495;53.400;7.608;2022-07-09T03:21:07;6.78;;;3.10;;
73266;SDS011;61495;53.400;7.608;2022-07-09T03:23:33;6.72;;;2.95;;
73266;SDS011;61495;53.400;7.608;2022-07-09T03:25:59;7.47;;;2.42;;
73266;SDS011;61495;53.400;7.608;2022-07-09T03:28:24;4.90;;;2.30;;
73266;SDS011;61495;53.400;7.608;2022-07-09T03:30:50;5.70;;;2.70;;
73266;SDS011;61495;53.400;7.608;2022-07-09T03:33:15;5.20;;;2.75;;
73266;SDS011;61495;53.400;7.608;2022-07-09T03:35:40;6.57;;;2.50;;
73266;SDS011;61495;53.400;7.608;2022-07-09T03:38:06;5.82;;;2.58;;
73266;SDS011;61495;53.400;7.608;2022-07-09T03:40:31;7.28;;;2.90;;
73266;SDS011;61495;53.400;7.608;2022-07-09T03:42:58;6.45;;;2.58;;
73266;SDS011;61495;53.400;7.608;2022-07-09T03:45:23;8.07;;;2.95;;
73266;SDS011;61495;53.400;7.608;2022-07-09T03:47:48;6.32;;;3.03;;
73266;SDS011;61495;53.400;7.608;2022-07-09T03:50:15;9.23;;;3.13;;
73266;SDS011;61495;53.400;7.608;2022-07-09T03:52:40;6.88;;;3.85;;
73266;SDS011;61495;53.400;7.608;2022-07-09T03:55:06;9.40;;;3.75;;
73266;SDS011;61495;53.400;7.608;2022-07-09T03:57:32;8.63;;;3.80;;
73266;SDS011;61495;53.400;7.608;2022-07-09T03:59:57;8.85;;;3.78;;
73266;SDS011;61495;53.400;7.608;2022-07-09T04:02:23;11.52;;;4.05;;
73266;SDS011;61495;53.400;7.608;2022-07-09T04:04:48;9.45;;;3.78;;
73266;SDS011;61495;53.400;7.608;2022-07-09T04:07:13;11.18;;;3.72;;
73266;SDS011;61495;53.400;7.608;2022-07-09T04:09:39;8.20;;;3.38;;
73266;SDS011;61495;53.400;7.608;2022-07-09T04:12:04;10.02;;;4.28;;
73266;SDS011;61495;53.400;7.608;2022-07-09T04:14:30;7.57;;;3.55;;
73266;SDS011;61495;53.400;7.608;2022-07-09T04:16:55;10.27;;;3.55;;
73266;SDS011;61495;53.400;7.608;2022-07-09T04:19:22;9.38;;;3.90;;
73266;SDS011;61495;53.400;7.608;2022-07-09T04:21:47;11.55;;;4.63;;
73266;SDS011;61495;53.400;7.608;2022-07-09T04:24:13;8.02;;;3.78;;
73266;SDS011;61495;53.400;7.608;2022-07-09T04:26:40;9.68;;;3.80;;
73266;SDS011;61495;53.400;7.608;2022-07-09T04:29:07;10.15;;;3.78;;
73266;SDS011;61495;53.400;7.608;2022-07-09T04:31:32;11.10;;;4.00;;
73266;SDS011;61495;53.400;7.608;2022-07-09T04:33:58;6.00;;;3.13;;
73266;SDS011;61495;53.400;7.608;2022-07-09T04:36:23;5.93;;;2.80;;
73266;SDS011;61495;53.400;7.608;2022-07-09T04:38:48;7.25;;;3.50;;
73266;SDS011;61495;53.400;7.608;2022-07-09T04:41:14;5.93;;;3.58;;
73266;SDS011;61495;53.400;7.608;2022-07-09T04:43:39;10.55;;;3.65;;
73266;SDS011;61495;53.400;7.608;2022-07-09T04:46:05;8.88;;;3.65;;
73266;SDS011;61495;53.400;7.608;2022-07-09T04:48:30;9.70;;;3.90;;
73266;SDS011;61495;53.400;7.608;2022-07-09T04:50:56;10.00;;;4.40;;
73266;SDS011;61495;53.400;7.608;2022-07-09T04:53:21;10.05;;;3.67;;
73266;SDS011;61495;53.400;7.608;2022-07-09T04:55:47;12.32;;;4.28;;
73266;SDS011;61495;53.400;7.608;2022-07-09T04:58:12;10.23;;;3.65;;
73266;SDS011;61495;53.400;7.608;2022-07-09T05:00:37;8.65;;;3.53;;
73266;SDS011;61495;53.400;7.608;2022-07-09T05:03:03;9.98;;;3.85;;
73266;SDS011;61495;53.400;7.608;2022-07-09T05:05:28;6.43;;;3.47;;
73266;SDS011;61495;53.400;7.608;2022-07-09T05:07:53;6.53;;;3.20;;
73266;SDS011;61495;53.400;7.608;2022-07-09T05:10:19;7.72;;;3.22;;
73266;SDS011;61495;53.400;7.608;2022-07-09T05:12:45;9.80;;;3.78;;
73266;SDS011;61495;53.400;7.608;2022-07-09T05:15:10;7.97;;;3.53;;
73266;SDS011;61495;53.400;7.608;2022-07-09T05:17:36;9.07;;;3.90;;
73266;SDS011;61495;53.400;7.608;2022-07-09T05:20:03;8.02;;;3.38;;
73266;SDS011;61495;53.400;7.608;2022-07-09T05:22:32;8.02;;;3.45;;
73266;SDS011;61495;53.400;7.608;2022-07-09T05:24:59;10.35;;;3.25;;
73266;SDS011;61495;53.400;7.608;2022-07-09T05:27:25;10.65;;;4.20;;
73266;SDS011;61495;53.400;7.608;2022-07-09T05:29:51;10.70;;;3.38;;
73266;SDS011;61495;53.400;7.608;2022-07-09T05:32:16;7.65;;;2.60;;
73266;SDS011;61495;53.400;7.608;2022-07-09T05:34:42;7.45;;;3.05;;
73266;SDS011;61495;53.400;7.608;2022-07-09T05:37:07;10.00;;;2.47;;
73266;SDS011;61495;53.400;7.608;2022-07-09T05:39:33;9.73;;;2.88;;
73266;SDS011;61495;53.400;7.608;2022-07-09T05:41:58;7.18;;;3.00;;
73266;SDS011;61495;53.400;7.608;2022-07-09T05:44:23;8.05;;;3.20;;
73266;SDS011;61495;53.400;7.608;2022-07-09T05:46:49;7.70;;;3.45;;
73266;SDS011;61495;53.400;7.608;2022-07-09T05:49:17;9.38;;;2.70;;
73266;SDS011;61495;53.400;7.608;2022-07-09T05:51:43;8.65;;;2.55;;
73266;SDS011;61495;53.400;7.608;2022-07-09T05:54:08;6.35;;;2.83;;
73266;SDS011;61495;53.400;7.608;2022-07-09T05:56:33;5.90;;;2.28;;
73266;SDS011;61495;53.400;7.608;2022-07-09T05:59:01;7.25;;;2.88;;
73266;SDS011;61495;53.400;7.608;2022-07-09T06:01:28;7.28;;;2.33;;
73266;SDS011;61495;53.400;7.608;2022-07-09T06:03:53;10.93;;;2.58;;
73266;SDS011;61495;53.400;7.608;2022-07-09T06:06:19;7.05;;;2.67;;
73266;SDS011;61495;53.400;7.608;2022-07-09T06:08:44;5.90;;;2.55;;
73266;SDS011;61495;53.400;7.608;2022-07-09T06:11:09;9.95;;;3.22;;
73266;SDS011;61495;53.400;7.608;2022-07-09T06:13:36;7.75;;;2.15;;
73266;SDS011;61495;53.400;7.608;2022-07-09T06:16:01;6.60;;;2.33;;
73266;SDS011;61495;53.400;7.608;2022-07-09T06:18:27;5.28;;;2.22;;
73266;SDS011;61495;53.400;7.608;2022-07-09T06:20:52;7.88;;;2.63;;
73266;SDS011;61495;53.400;7.608;2022-07-09T06:23:17;7.13;;;2.22;;
73266;SDS011;61495;53.400;7.608;2022-07-09T06:25:43;5.18;;;2.20;;
73266;SDS011;61495;53.400;7.608;2022-07-09T06:28:08;5.93;;;2.38;;
73266;SDS011;61495;53.400;7.608;2022-07-09T06:30:34;6.53;;;2.33;;
73266;SDS011;61495;53.400;7.608;2022-07-09T06:32:59;5.72;;;2.03;;
73266;SDS011;61495;53.400;7.608;2022-07-09T06:35:25;7.28;;;2.20;;
73266;SDS011;61495;53.400;7.608;2022-07-09T06:37:51;6.93;;;2.70;;
73266;SDS011;61495;53.400;7.608;2022-07-09T06:40:16;6.20;;;2.53;;
73266;SDS011;61495;53.400;7.608;2022-07-09T06:42:42;5.70;;;2.22;;
73266;SDS011;61495;53.400;7.608;2022-07-09T06:45:07;5.60;;;2.40;;
73266;SDS011;61495;53.400;7.608;2022-07-09T06:47:33;6.88;;;2.33;;
73266;SDS011;61495;53.400;7.608;2022-07-09T06:49:59;8.77;;;3.08;;
73266;SDS011;61495;53.400;7.608;2022-07-09T06:52:25;7.43;;;2.53;;
73266;SDS011;61495;53.400;7.608;2022-07-09T06:54:50;8.10;;;2.63;;
73266;SDS011;61495;53.400;7.608;2022-07-09T06:57:15;8.68;;;2.40;;
73266;SDS011;61495;53.400;7.608;2022-07-09T06:59:42;7.68;;;2.55;;
73266;SDS011;61495;53.400;7.608;2022-07-09T07:02:12;7.93;;;2.28;;
73266;SDS011;61495;53.400;7.608;2022-07-09T07:04:40;5.05;;;2.05;;
73266;SDS011;61495;53.400;7.608;2022-07-09T07:07:06;7.35;;;1.98;;
73266;SDS011;61495;53.400;7.608;2022-07-09T07:09:31;5.00;;;2.25;;
73266;SDS011;61495;53.400;7.608;2022-07-09T07:11:56;6.25;;;2.83;;
73266;SDS011;61495;53.400;7.608;2022-07-09T07:14:22;5.63;;;1.83;;
73266;SDS011;61495;53.400;7.608;2022-07-09T07:16:48;4.05;;;1.88;;
73266;SDS011;61495;53.400;7.608;2022-07-09T07:19:13;5.60;;;1.50;;
73266;SDS011;61495;53.400;7.608;2022-07-09T07:21:39;4.65;;;1.85;;
73266;SDS011;61495;53.400;7.608;2022-07-09T07:24:05;7.97;;;1.60;;
73266;SDS011;61495;53.400;7.608;2022-07-09T07:26:32;4.57;;;1.63;;
73266;SDS011;61495;53.400;7.608;2022-07-09T07:28:57;4.90;;;2.40;;
73266;SDS011;61495;53.400;7.608;2022-07-09T07:31:23;5.05;;;1.55;;
73266;SDS011;61495;53.400;7.608;2022-07-09T07:33:49;4.20;;;1.60;;
73266;SDS011;61495;53.400;7.608;2022-07-09T07:36:15;4.72;;;1.60;;
73266;SDS011;61495;53.400;7.608;2022-07-09T07:38:41;6.07;;;1.50;;
73266;SDS011;61495;53.400;7.608;2022-07-09T07:41:06;3.58;;;1.40;;
73266;SDS011;61495;53.400;7.608;2022-07-09T07:43:31;6.47;;;1.60;;
73266;SDS011;61495;53.400;7.608;2022-07-09T07:45:57;4.18;;;1.77;;
73266;SDS011;61495;53.400;7.608;2022-07-09T07:48:22;4.97;;;1.45;;
73266;SDS011;61495;53.400;7.608;2022-07-09T07:50:50;3.72;;;1.55;;
73266;SDS011;61495;53.400;7.608;2022-07-09T07:53:16;3.72;;;1.13;;
73266;SDS011;61495;53.400;7.608;2022-07-09T07:55:41;5.00;;;1.60;;
73266;SDS011;61495;53.400;7.608;2022-07-09T07:58:06;6.68;;;1.42;;
73266;SDS011;61495;53.400;7.608;2022-07-09T08:00:32;4.50;;;1.50;;
73266;SDS011;61495;53.400;7.608;2022-07-09T08:02:57;4.00;;;1.27;;
73266;SDS011;61495;53.400;7.608;2022-07-09T08:05:23;5.28;;;1.52;;
73266;SDS011;61495;53.400;7.608;2022-07-09T08:07:48;5.05;;;1.40;;
73266;SDS011;61495;53.400;7.608;2022-07-09T08:10:13;4.95;;;1.40;;
73266;SDS011;61495;53.400;7.608;2022-07-09T08:12:39;4.47;;;1.83;;
73266;SDS011;61495;53.400;7.608;2022-07-09T08:15:05;6.18;;;1.52;;
73266;SDS011;61495;53.400;7.608;2022-07-09T08:17:30;3.85;;;1.30;;
73266;SDS011;61495;53.400;7.608;2022-07-09T08:19:56;6.10;;;2.05;;
73266;SDS011;61495;53.400;7.608;2022-07-09T08:22:21;4.63;;;1.30;;
73266;SDS011;61495;53.400;7.608;2022-07-09T08:24:47;5.05;;;1.13;;
73266;SDS011;61495;53.400;7.608;2022-07-09T08:27:13;3.20;;;1.30;;
73266;SDS011;61495;53.400;7.608;2022-07-09T08:29:38;3.58;;;1.30;;
73266;SDS011;61495;53.400;7.608;2022-07-09T08:32:04;3.08;;;1.55;;
73266;SDS011;61495;53.400;7.608;2022-07-09T08:34:30;4.93;;;1.20;;
73266;SDS011;61495;53.400;7.608;2022-07-09T08:36:55;4.43;;;1.27;;
73266;SDS011;61495;53.400;7.608;2022-07-09T08:39:21;5.03;;;1.25;;
73266;SDS011;61495;53.400;7.608;2022-07-09T08:41:47;6.47;;;1.40;;
73266;SDS011;61495;53.400;7.608;2022-07-09T08:44:12;5.47;;;1.60;;
73266;SDS011;61495;53.400;7.608;2022-07-09T08:46:41;3.45;;;1.55;;
73266;SDS011;61495;53.400;7.608;2022-07-09T08:49:07;4.00;;;1.30;;
73266;SDS011;61495;53.400;7.608;2022-07-09T08:51:33;6.10;;;1.65;;
73266;SDS011;61495;53.400;7.608;2022-07-09T08:54:00;3.83;;;1.35;;
73266;SDS011;61495;53.400;7.608;2022-07-09T08:56:26;4.25;;;1.30;;
73266;SDS011;61495;53.400;7.608;2022-07-09T08:58:51;6.05;;;1.40;;
73266;SDS011;61495;53.400;7.608;2022-07-09T09:01:17;4.13;;;1.65;;
73266;SDS011;61495;53.400;7.608;2022-07-09T09:03:43;5.97;;;1.40;;
73266;SDS011;61495;53.400;7.608;2022-07-09T09:06:09;3.60;;;1.23;;
73266;SDS011;61495;53.400;7.608;2022-07-09T09:08:36;4.72;;;1.40;;
73266;SDS011;61495;53.400;7.608;2022-07-09T09:11:06;5.00;;;1.40;;
73266;SDS011;61495;53.400;7.608;2022-07-09T09:13:41;4.88;;;1.50;;
73266;SDS011;61495;53.400;7.608;2022-07-09T09:16:11;6.07;;;1.50;;
73266;SDS011;61495;53.400;7.608;2022-07-09T09:18:56;5.07;;;1.38;;
73266;SDS011;61495;53.400;7.608;2022-07-09T09:21:22;4.85;;;1.20;;
73266;SDS011;61495;53.400;7.608;2022-07-09T09:23:50;4.18;;;1.30;;
73266;SDS011;61495;53.400;7.608;2022-07-09T09:26:20;6.07;;;1.52;;
73266;SDS011;61495;53.400;7.608;2022-07-09T09:31:24;5.55;;;1.40;;
73266;SDS011;61495;53.400;7.608;2022-07-09T09:34:08;3.13;;;1.15;;
73266;SDS011;61495;53.400;7.608;2022-07-09T09:36:37;3.38;;;1.48;;
73266;SDS011;61495;53.400;7.608;2022-07-09T09:39:08;7.63;;;1.50;;
73266;SDS011;61495;53.400;7.608;2022-07-09T09:41:37;6.40;;;1.40;;
73266;SDS011;61495;53.400;7.608;2022-07-09T09:44:08;3.97;;;1.13;;
73266;SDS011;61495;53.400;7.608;2022-07-09T09:46:36;3.65;;;1.38;;
73266;SDS011;61495;53.400;7.608;2022-07-09T09:49:04;5.55;;;1.52;;
73266;SDS011;61495;53.400;7.608;2022-07-09T09:51:34;3.92;;;1.30;;
73266;SDS011;61495;53.400;7.608;2022-07-09T09:54:20;4.85;;;1.40;;
73266;SDS011;61495;53.400;7.608;2022-07-09T09:56:47;9.38;;;1.88;;
73266;SDS011;61495;53.400;7.608;2022-07-09T09:59:14;7.53;;;1.77;;
73266;SDS011;61495;53.400;7.608;2022-07-09T10:01:41;5.47;;;1.30;;
73266;SDS011;61495;53.400;7.608;2022-07-09T10:04:09;2.83;;;1.55;;
73266;SDS011;61495;53.400;7.608;2022-07-09T10:06:36;5.30;;;1.40;;
73266;SDS011;61495;53.400;7.608;2022-07-09T10:09:03;16.17;;;2.65;;
73266;SDS011;61495;53.400;7.608;2022-07-09T10:11:37;9.25;;;2.10;;
73266;SDS011;61495;53.400;7.608;2022-07-09T10:14:07;9.68;;;1.95;;
73266;SDS011;61495;53.400;7.608;2022-07-09T10:16:40;4.80;;;1.63;;
73266;SDS011;61495;53.400;7.608;2022-07-09T10:19:05;3.97;;;1.45;;
73266;SDS011;61495;53.400;7.608;2022-07-09T10:21:41;3.78;;;1.10;;
73266;SDS011;61495;53.400;7.608;2022-07-09T10:24:08;4.68;;;1.20;;
73266;SDS011;61495;53.400;7.608;2022-07-09T10:26:44;5.00;;;1.48;;
73266;SDS011;61495;53.400;7.608;2022-07-09T10:29:25;3.90;;;1.20;;
73266;SDS011;61495;53.400;7.608;2022-07-09T10:31:53;3.22;;;1.05;;
73266;SDS011;61495;53.400;7.608;2022-07-09T10:37:00;4.13;;;1.50;;
73266;SDS011;61495;53.400;7.608;2022-07-09T10:39:27;5.63;;;1.80;;
73266;SDS011;61495;53.400;7.608;2022-07-09T10:41:59;5.80;;;1.30;;
73266;SDS011;61495;53.400;7.608;2022-07-09T10:44:26;6.47;;;1.45;;
73266;SDS011;61495;53.400;7.608;2022-07-09T10:46:56;5.07;;;1.35;;
73266;SDS011;61495;53.400;7.608;2022-07-09T10:49:22;5.43;;;1.70;;
73266;SDS011;61495;53.400;7.608;2022-07-09T10:51:48;6.65;;;1.55;;
73266;SDS011;61495;53.400;7.608;2022-07-09T10:54:16;8.57;;;1.80;;
73266;SDS011;61495;53.400;7.608;2022-07-09T10:56:42;4.32;;;1.58;;
73266;SDS011;61495;53.400;7.608;2022-07-09T10:59:08;6.97;;;1.40;;
73266;SDS011;61495;53.400;7.608;2022-07-09T11:01:34;7.85;;;2.10;;
73266;SDS011;61495;53.400;7.608;2022-07-09T11:03:59;3.75;;;1.30;;
73266;SDS011;61495;53.400;7.608;2022-07-09T11:06:24;6.38;;;1.42;;
73266;SDS011;61495;53.400;7.608;2022-07-09T11:08:50;6.10;;;1.20;;
73266;SDS011;61495;53.400;7.608;2022-07-09T11:11:24;6.65;;;1.30;;
73266;SDS011;61495;53.400;7.608;2022-07-09T11:13:50;8.75;;;1.90;;
73266;SDS011;61495;53.400;7.608;2022-07-09T11:16:21;4.68;;;1.75;;
73266;SDS011;61495;53.400;7.608;2022-07-09T11:18:52;9.43;;;1.63;;
73266;SDS011;61495;53.400;7.608;2022-07-09T11:21:22;5.70;;;1.38;;
73266;SDS011;61495;53.400;7.608;2022-07-09T11:23:51;7.72;;;1.80;;
73266;SDS011;61495;53.400;7.608;2022-07-09T11:26:17;4.65;;;1.27;;
73266;SDS011;61495;53.400;7.608;2022-07-09T11:28:42;4.38;;;1.13;;
73266;SDS011;61495;53.400;7.608;2022-07-09T11:31:09;5.93;;;1.48;;
73266;SDS011;61495;53.400;7.608;2022-07-09T11:33:36;7.75;;;1.23;;
73266;SDS011;61495;53.400;7.608;2022-07-09T11:36:23;6.50;;;1.40;;
73266;SDS011;61495;53.400;7.608;2022-07-09T11:39:00;8.50;;;1.65;;
73266;SDS011;61495;53.400;7.608;2022-07-09T11:41:25;5.57;;;1.20;;
73266;SDS011;61495;53.400;7.608;2022-07-09T11:43:51;4.97;;;1.13;;
73266;SDS011;61495;53.400;7.608;2022-07-09T11:46:17;4.75;;;1.40;;
73266;SDS011;61495;53.400;7.608;2022-07-09T11:48:54;4.28;;;1.15;;
73266;SDS011;61495;53.400;7.608;2022-07-09T11:51:32;7.22;;;1.20;;
73266;SDS011;61495;53.400;7.608;2022-07-09T11:54:02;4.57;;;1.17;;
73266;SDS011;61495;53.400;7.608;2022-07-09T11:56:39;5.03;;;1.85;;
73266;SDS011;61495;53.400;7.608;2022-07-09T11:59:05;7.13;;;1.10;;
73266;SDS011;61495;53.400;7.608;2022-07-09T12:01:31;5.55;;;0.95;;
73266;SDS011;61495;53.400;7.608;2022-07-09T12:03:57;5.28;;;0.90;;
73266;SDS011;61495;53.400;7.608;2022-07-09T12:06:22;6.88;;;1.00;;
73266;SDS011;61495;53.400;7.608;2022-07-09T12:08:50;2.75;;;0.80;;
73266;SDS011;61495;53.400;7.608;2022-07-09T12:11:30;4.18;;;0.93;;
73266;SDS011;61495;53.400;7.608;2022-07-09T12:14:16;5.10;;;1.20;;
73266;SDS011;61495;53.400;7.608;2022-07-09T12:16:42;3.53;;;0.88;;
73266;SDS011;61495;53.400;7.608;2022-07-09T12:19:08;3.33;;;0.90;;
73266;SDS011;61495;53.400;7.608;2022-07-09T12:21:37;4.57;;;0.98;;
73266;SDS011;61495;53.400;7.608;2022-07-09T12:24:03;4.25;;;1.20;;
73266;SDS011;61495;53.400;7.608;2022-07-09T12:26:28;4.07;;;1.05;;
73266;SDS011;61495;53.400;7.608;2022-07-09T12:29:17;4.30;;;1.05;;
73266;SDS011;61495;53.400;7.608;2022-07-09T12:31:48;5.80;;;1.00;;
73266;SDS011;61495;53.400;7.608;2022-07-09T12:34:25;4.13;;;0.80;;
73266;SDS011;61495;53.400;7.608;2022-07-09T12:36:59;6.57;;;0.85;;
73266;SDS011;61495;53.400;7.608;2022-07-09T12:41:55;5.80;;;1.10;;
73266;SDS011;61495;53.400;7.608;2022-07-09T12:44:26;4.00;;;1.08;;
73266;SDS011;61495;53.400;7.608;2022-07-09T12:56:41;3.40;;;0.70;;
73266;SDS011;61495;53.400;7.608;2022-07-09T12:59:07;3.65;;;0.75;;
73266;SDS011;61495;53.400;7.608;2022-07-09T13:01:32;3.63;;;0.70;;
73266;SDS011;61495;53.400;7.608;2022-07-09T13:03:58;3.22;;;0.73;;
73266;SDS011;61495;53.400;7.608;2022-07-09T13:06:24;4.18;;;0.75;;
73266;SDS011;61495;53.400;7.608;2022-07-09T13:08:59;3.90;;;0.70;;
73266;SDS011;61495;53.400;7.608;2022-07-09T13:11:30;2.95;;;0.70;;
73266;SDS011;61495;53.400;7.608;2022-07-09T13:13:55;6.20;;;1.20;;
73266;SDS011;61495;53.400;7.608;2022-07-09T13:16:21;5.10;;;0.95;;
73266;SDS011;61495;53.400;7.608;2022-07-09T13:18:47;4.63;;;0.80;;
73266;SDS011;61495;53.400;7.608;2022-07-09T13:21:13;4.78;;;0.88;;
73266;SDS011;61495;53.400;7.608;2022-07-09T13:23:39;3.67;;;0.88;;
73266;SDS011;61495;53.400;7.608;2022-07-09T13:26:05;4.07;;;0.70;;
73266;SDS011;61495;53.400;7.608;2022-07-09T13:28:31;4.82;;;0.90;;
73266;SDS011;61495;53.400;7.608;2022-07-09T13:30:57;4.45;;;0.80;;
73266;SDS011;61495;53.400;7.608;2022-07-09T13:33:29;4.05;;;0.82;;
73266;SDS011;61495;53.400;7.608;2022-07-09T13:35:57;4.20;;;0.80;;
73266;SDS011;61495;53.400;7.608;2022-07-09T13:38:22;6.80;;;1.00;;
73266;SDS011;61495;53.400;7.608;2022-07-09T13:40:48;3.05;;;0.80;;
73266;SDS011;61495;53.400;7.608;2022-07-09T13:43:14;4.03;;;0.93;;
73266;SDS011;61495;53.400;7.608;2022-07-09T13:45:40;3.60;;;1.00;;
73266;SDS011;61495;53.400;7.608;2022-07-09T13:48:05;3.53;;;0.80;;
73266;SDS011;61495;53.400;7.608;2022-07-09T13:50:34;5.10;;;1.05;;
73266;SDS011;61495;53.400;7.608;2022-07-09T13:53:01;3.78;;;0.80;;
73266;SDS011;61495;53.400;7.608;2022-07-09T13:55:27;4.40;;;0.95;;
73266;SDS011;61495;53.400;7.608;2022-07-09T13:57:54;3.35;;;0.85;;
73266;SDS011;61495;53.400;7.608;2022-07-09T14:00:20;2.58;;;0.68;;
73266;SDS011;61495;53.400;7.608;2022-07-09T14:02:46;3.70;;;0.73;;
73266;SDS011;61495;53.400;7.608;2022-07-09T14:05:13;4.88;;;0.80;;
73266;SDS011;61495;53.400;7.608;2022-07-09T14:07:39;2.10;;;0.70;;
73266;SDS011;61495;53.400;7.608;2022-07-09T14:10:05;4.32;;;0.68;;
73266;SDS011;61495;53.400;7.608;2022-07-09T14:12:31;4.55;;;0.90;;
73266;SDS011;61495;53.400;7.608;2022-07-09T14:14:57;3.50;;;0.75;;
73266;SDS011;61495;53.400;7.608;2022-07-09T14:17:24;4.55;;;1.50;;
73266;SDS011;61495;53.400;7.608;2022-07-09T14:19:59;3.55;;;0.93;;
73266;SDS011;61495;53.400;7.608;2022-07-09T14:22:25;2.80;;;0.80;;
73266;SDS011;61495;53.400;7.608;2022-07-09T14:24:51;4.07;;;1.25;;
73266;SDS011;61495;53.400;7.608;2022-07-09T14:27:17;7.18;;;1.10;;
73266;SDS011;61495;53.400;7.608;2022-07-09T14:29:44;2.60;;;0.80;;
73266;SDS011;61495;53.400;7.608;2022-07-09T14:32:10;5.63;;;0.80;;
73266;SDS011;61495;53.400;7.608;2022-07-09T14:34:36;5.80;;;1.15;;
73266;SDS011;61495;53.400;7.608;2022-07-09T14:37:02;7.35;;;1.08;;
73266;SDS011;61495;53.400;7.608;2022-07-09T14:39:28;3.78;;;0.88;;
73266;SDS011;61495;53.400;7.608;2022-07-09T14:41:54;5.82;;;0.80;;
73266;SDS011;61495;53.400;7.608;2022-07-09T14:44:20;4.97;;;0.93;;
73266;SDS011;61495;53.400;7.608;2022-07-09T14:46:45;3.97;;;0.95;;
73266;SDS011;61495;53.400;7.608;2022-07-09T14:49:11;5.72;;;1.17;;
73266;SDS011;61495;53.400;7.608;2022-07-09T14:51:37;5.85;;;1.20;;
73266;SDS011;61495;53.400;7.608;2022-07-09T14:54:04;5.93;;;0.93;;
73266;SDS011;61495;53.400;7.608;2022-07-09T14:56:30;4.20;;;0.93;;
73266;SDS011;61495;53.400;7.608;2022-07-09T14:58:56;4.07;;;1.08;;
73266;SDS011;61495;53.400;7.608;2022-07-09T15:01:21;3.35;;;0.80;;
73266;SDS011;61495;53.400;7.608;2022-07-09T15:03:47;2.70;;;0.73;;